Phoenix Sky Harbor International Airport
KPHX : now visible

Airfield :











YOU CAN JOIN US ON...

 
LOGIN :

Register | Disclaimer

   EN    FR    IT 

 









Legend :    VFR   Marginal VFR   IFR   Intensive IFR   Very Intensive IFR
Visi :
Ceiling :
>= 8 km
>= 3000ft
5 to 8 km
1000 to 3000 ft
1500m to 5 km
500 to 1000 ft
800 to 1500m
200 to 500 ft
< 800m
< 200 ft
Symbols :   Thunderstorms  Fog  Heavy snow  Heavy precipitations  Wind > 20 kt






- Airport Elevation : 1135 ft
- IATA code : PHX


KPHX - Phoenix Sky Harbor International

CURRENT METAR :
  • 080758Z 12006KT 10SM BKN011 BKN048 OVC120 14/13 A3006 RMK AO2 T01390128

EXPIRED METARs :
  • 080751Z 11007KT 10SM SCT034 BKN048 OVC120 14/13 A3007 RMK AO2 RAE01 SLP171 P0000 T01440128
  • 080651Z 36004KT 8SM -RA SCT034 BKN048 OVC120 14/12 A3009 RMK AO2 RAB22 SLP181 P0000 T01390122 402170106
  • 080551Z 22004KT 8SM BKN035 BKN055 OVC075 14/13 A3011 RMK AO2 RAE0457B34E50 SLP189 P0000 60010 T01440133 10200 20144 51011

TAF KPHX
Valid from the 08 at 07:00 until the 09 at 12:00 UTC


080723Z 0807/0912 11006KT P6SM BKN050 BKN070 OVC120
FM081400 11005KT P6SM SCT060 BKN080 OVC100
FM082000 27006KT P6SM SCT060 BKN120
FM090500 21005KT P6SM FEW060 SCT200



MET'MAP, your aeronautical weather chart ! - Copyright ORBIFLY December 2007 - Disclaimer

ORBIFLY MET'MAP TEAM :

Programming & Development : Alexandra Zaïnal
Concept & original design : Baudouin d'Aumeries
Assistance for programming : Marc-Olivier Méhu
Technical & hardware support : Manuel Goepfert

Contact : metmap@orbifly.com




SOURCES & CREDITS :

   NOAA       Earth
Advisory